Aviation Digital Data Service (ADDS)

Output produced by METARs form (1645 UTC 20 January 2019)
found at http://www.aviationweather.gov/metar/data/
 
TKPK 201132Z 2012/2112 07013KT P6SM VCSH SCT020 AMD NOT SKED 2102/2111
       
TAF TKPN 201100Z 2012/2112 08011KT 9999 SCT020 
     PROB30 
     TEMPO 2014/2022 SHRA